Terminal Aerodrome Forecast
Issued by NWS

Home | Current Version | Previous Version | Graphics & Text | Print | Product List | Glossary On
Versions: 1 2 3 4 5 6 7 8 9 10 11 12 13 14 15 16 17 18 19 20
114
FTUS43 KBIS 221120
TAFDIK
TAF
KDIK 221120Z 2212/2312 21008KT P6SM SCT200
     FM221500 24009KT P6SM FEW045 FEW200
     FM230100 19008KT P6SM SCT060 BKN090
     FM230800 07010KT P6SM BKN030
     FM231000 07010KT P6SM BKN015=

USA.gov is the U.S. government's official web portal to all federal, state and local government web resources and services.